Time;durP1;ratioP1;P1;durP2;ratioP2;P2;SDS_P1;SDS_P2;PMS_P1;PMS_P2;Temp;Humidity;BMP_temperature;BMP_pressure;BME280_temperature;BME280_humidity;BME280_pressure;Samples;Min_cycle;Max_cycle;Signal;HPM_P1;HPM_P2
2021/05/06 00:29:35;;;;;;;20.50;19.30;;;4.30;99.90;;;;;;5058766;28;21053;-76
2021/05/06 00:31:41;;;;;;;19.57;18.47;;;3.90;99.90;;;;;;5084727;28;20515;-73
2021/05/06 00:34:10;;;;;;;19.70;18.60;;;4.00;99.90;;;;;;5077930;28;20513;-73
2021/05/06 00:36:36;;;;;;;19.00;18.00;;;3.80;99.90;;;;;;5080356;28;20461;-75
2021/05/06 00:39:07;;;;;;;19.60;18.50;;;3.80;99.90;;;;;;5079637;28;20864;-73
2021/05/06 00:41:46;;;;;;;19.33;18.23;;;3.80;99.90;;;;;;5083587;28;20461;-75
2021/05/06 00:45:03;;;;;;;20.00;18.90;;;3.90;99.90;;;;;;5089479;28;20980;-73
2021/05/06 00:58:39;;;;;;;19.47;18.40;;;3.90;99.90;;;;;;5057100;28;20557;-72
2021/05/06 01:01:18;;;;;;;19.70;18.60;;;4.00;99.90;;;;;;5080275;28;20458;-74
2021/05/06 01:03:59;;;;;;;19.80;18.70;;;4.10;99.90;;;;;;5078581;28;20466;-75
2021/05/06 01:06:29;;;;;;;21.03;19.83;;;4.30;99.90;;;;;;5073148;28;20455;-76
2021/05/06 01:08:58;;;;;;;19.83;18.73;;;4.40;99.90;;;;;;5081435;28;20489;-73
2021/05/06 01:11:29;;;;;;;19.27;18.27;;;4.30;99.90;;;;;;5083072;28;20481;-73
2021/05/06 01:41:06;;;;;;;18.87;17.87;;;4.60;99.90;;;;;;5078175;28;20455;-72
2021/05/06 01:43:40;;;;;;;19.00;18.00;;;4.60;99.90;;;;;;5077462;28;20966;-72
2021/05/06 01:59:46;;;;;;;18.70;17.70;;;4.60;99.90;;;;;;5079388;28;20686;-73
2021/05/06 02:02:12;;;;;;;18.60;17.60;;;4.60;99.90;;;;;;5086365;28;20458;-74
2021/05/06 02:04:40;;;;;;;18.20;17.30;;;4.60;99.90;;;;;;5082079;28;20460;-74
2021/05/06 02:07:07;;;;;;;18.80;17.80;;;4.70;99.90;;;;;;5081449;28;20808;-75
2021/05/06 02:09:34;;;;;;;18.50;17.50;;;4.60;99.90;;;;;;5078727;28;20508;-75
2021/05/06 02:12:02;;;;;;;18.83;17.83;;;4.60;99.90;;;;;;5077327;28;21024;-73
2021/05/06 02:14:29;;;;;;;18.13;17.23;;;4.70;99.90;;;;;;5080505;28;20496;-73
2021/05/06 02:16:55;;;;;;;18.00;17.10;;;4.70;99.90;;;;;;5086593;28;21086;-73
2021/05/06 02:19:28;;;;;;;18.50;17.50;;;4.70;99.90;;;;;;5090843;28;20457;-72
2021/05/06 02:21:55;;;;;;;18.40;17.47;;;4.70;99.90;;;;;;5078860;28;20455;-76
2021/05/06 02:24:22;;;;;;;18.07;17.17;;;4.80;99.90;;;;;;5080371;28;20457;-74
2021/05/06 02:26:49;;;;;;;19.83;18.73;;;4.90;99.90;;;;;;5081683;28;20549;-75
2021/05/06 02:29:17;;;;;;;19.73;18.63;;;5.00;99.90;;;;;;5085574;28;20549;-76
2021/05/06 02:31:44;;;;;;;18.83;17.83;;;5.00;99.90;;;;;;5087432;28;20478;-73
2021/05/06 02:34:11;;;;;;;19.03;18.00;;;5.00;99.90;;;;;;5084957;28;20880;-73
2021/05/06 02:36:37;;;;;;;19.17;18.10;;;5.00;99.90;;;;;;5077113;28;20968;-73
2021/05/06 02:39:04;;;;;;;18.60;17.60;;;4.90;99.90;;;;;;5085819;28;20466;-75
2021/05/06 02:41:31;;;;;;;18.63;17.63;;;5.00;99.90;;;;;;5080403;28;20957;-74
2021/05/06 02:43:57;;;;;;;18.80;17.80;;;5.00;99.90;;;;;;5079818;28;20485;-76
2021/05/06 02:46:26;;;;;;;18.57;17.57;;;5.00;99.90;;;;;;5086560;28;20465;-72
2021/05/06 02:48:53;;;;;;;18.07;17.17;;;5.00;99.90;;;;;;5081849;28;20462;-73
2021/05/06 02:51:23;;;;;;;18.20;17.30;;;5.10;99.90;;;;;;5079359;28;20455;-76
2021/05/06 02:53:52;;;;;;;18.20;17.30;;;5.10;99.90;;;;;;5076165;28;20490;-75
2021/05/06 02:56:24;;;;;;;18.40;17.40;;;5.10;99.90;;;;;;5085134;28;20527;-73
2021/05/06 02:59:04;;;;;;;17.60;16.70;;;5.10;99.90;;;;;;5085434;28;20476;-75
2021/05/06 03:04:16;;;;;;;16.93;16.13;;;5.10;99.90;;;;;;5080710;28;20836;-73
2021/05/06 03:06:48;;;;;;;16.83;16.03;;;5.10;99.90;;;;;;5085291;28;20966;-73
2021/05/06 03:12:22;;;;;;;17.93;17.03;;;5.10;99.90;;;;;;5067256;28;20447;-75
2021/05/06 03:23:01;;;;;;;17.67;16.77;;;5.10;99.90;;;;;;5079065;28;20469;-72
2021/05/06 03:25:29;;;;;;;17.80;16.90;;;5.20;99.90;;;;;;5083512;28;20478;-74
2021/05/06 03:27:59;;;;;;;18.50;17.50;;;5.20;99.90;;;;;;5077035;28;20487;-76
2021/05/06 03:42:05;;;;;;;15.57;14.87;;;5.30;99.90;;;;;;5047811;28;20993;-76
2021/05/06 03:44:40;;;;;;;15.50;14.80;;;5.30;99.90;;;;;;5078771;28;20455;-73
2021/05/06 04:12:30;;;;;;;14.77;14.07;;;5.00;99.90;;;;;;5088254;28;20956;-73
2021/05/06 04:18:02;;;;;;;14.80;14.10;;;5.10;99.90;;;;;;5079775;28;21024;-74
2021/05/06 04:26:10;;;;;;;16.83;15.80;;;5.30;99.90;;;;;;5077239;28;20457;-72
2021/05/06 04:37:03;;;;;;;19.37;17.87;;;5.40;99.90;;;;;;5081526;28;20817;-74
2021/05/06 04:39:40;;;;;;;21.83;19.87;;;5.40;99.90;;;;;;5073244;28;20462;-72
2021/05/06 04:53:26;;;;;;;21.57;20.17;;;5.20;99.90;;;;;;5076875;28;20583;-73
2021/05/06 04:56:14;;;;;;;21.60;19.93;;;5.20;99.90;;;;;;5041351;28;20867;-73
2021/05/06 05:04:15;;;;;;;22.07;20.20;;;5.20;99.90;;;;;;5080704;28;20471;-74
2021/05/06 05:06:49;;;;;;;23.70;21.67;;;5.20;99.90;;;;;;5082042;28;20458;-74
2021/05/06 05:09:35;;;;;;;23.60;21.70;;;5.30;99.90;;;;;;5085941;28;20457;-72
2021/05/06 05:12:06;;;;;;;28.13;19.83;;;5.40;99.90;;;;;;5084354;28;20486;-74
2021/05/06 05:14:40;;;;;;;23.13;21.47;;;5.50;99.90;;;;;;5081887;28;20482;-73
2021/05/06 05:20:08;;;;;;;21.37;19.97;;;5.60;99.90;;;;;;5078898;28;20549;-73
2021/05/06 05:25:24;;;;;;;23.30;21.47;;;5.70;99.90;;;;;;5081967;28;20519;-74
2021/05/06 05:27:51;;;;;;;22.83;21.00;;;5.80;99.90;;;;;;5082650;28;20486;-72
2021/05/06 05:30:18;;;;;;;21.27;19.57;;;5.80;99.90;;;;;;5084679;28;20468;-74
2021/05/06 05:32:46;;;;;;;23.43;21.27;;;5.80;99.90;;;;;;5087278;28;20458;-74
2021/05/06 05:35:16;;;;;;;23.87;22.13;;;5.70;99.90;;;;;;5082970;28;20473;-74
2021/05/06 05:37:47;;;;;;;22.10;20.40;;;5.70;99.90;;;;;;5083771;28;20467;-73
2021/05/06 05:40:21;;;;;;;21.40;20.00;;;5.60;99.90;;;;;;5083477;28;20611;-74
2021/05/06 05:42:57;;;;;;;22.47;20.67;;;5.70;99.90;;;;;;5078963;28;20476;-72
2021/05/06 05:56:32;;;;;;;21.73;20.20;;;5.90;99.90;;;;;;5082452;28;20534;-72
2021/05/06 05:58:59;;;;;;;21.70;20.00;;;5.90;99.90;;;;;;5079083;28;20459;-73
2021/05/06 06:01:27;;;;;;;21.70;19.70;;;6.10;99.90;;;;;;5080011;28;20468;-74
2021/05/06 06:03:54;;;;;;;22.40;20.17;;;6.00;99.90;;;;;;5084658;28;20545;-72
2021/05/06 06:06:21;;;;;;;21.17;19.57;;;6.10;99.90;;;;;;5086164;28;20454;-75
2021/05/06 06:08:48;;;;;;;20.57;18.47;;;6.20;99.90;;;;;;5076119;28;20470;-72
2021/05/06 06:11:16;;;;;;;19.93;18.33;;;6.10;99.90;;;;;;5075968;28;20481;-74
2021/05/06 06:13:43;;;;;;;20.33;18.70;;;6.10;99.90;;;;;;5080327;28;20973;-74
2021/05/06 06:16:12;;;;;;;20.77;19.27;;;6.20;99.90;;;;;;5086703;28;20569;-73
2021/05/06 06:18:45;;;;;;;19.83;18.33;;;6.50;99.90;;;;;;5083043;28;20541;-74
2021/05/06 06:21:17;;;;;;;19.90;18.10;;;6.70;99.90;;;;;;5076914;28;20556;-73
2021/05/06 06:23:43;;;;;;;18.70;17.37;;;6.80;99.90;;;;;;5082455;28;20455;-74
2021/05/06 06:26:10;;;;;;;18.73;17.23;;;6.90;99.90;;;;;;5078690;28;20469;-73
2021/05/06 06:28:39;;;;;;;19.53;18.00;;;7.10;99.90;;;;;;5083371;28;20509;-72
2021/05/06 06:31:11;;;;;;;21.40;19.60;;;7.20;99.90;;;;;;5086463;28;20466;-72
2021/05/06 06:33:37;;;;;;;19.37;18.07;;;7.10;99.90;;;;;;5082268;28;20470;-74
2021/05/06 06:36:05;;;;;;;18.47;17.10;;;7.30;99.90;;;;;;5081511;28;20477;-73
2021/05/06 06:38:32;;;;;;;20.00;18.70;;;7.40;99.90;;;;;;5081726;28;20467;-73
2021/05/06 06:40:58;;;;;;;20.10;18.70;;;7.60;99.90;;;;;;5083570;28;20458;-75
2021/05/06 06:43:25;;;;;;;18.70;17.40;;;7.60;99.90;;;;;;5081919;28;20487;-73
2021/05/06 06:45:51;;;;;;;20.03;18.37;;;7.60;99.90;;;;;;5086315;28;20462;-72
2021/05/06 06:48:17;;;;;;;19.17;17.73;;;7.80;99.90;;;;;;5082448;28;20452;-75
2021/05/06 06:50:44;;;;;;;19.60;18.00;;;7.80;99.90;;;;;;5082130;28;20462;-74
2021/05/06 06:53:13;;;;;;;20.20;18.40;;;8.00;99.90;;;;;;5077523;28;20466;-73
2021/05/06 06:55:40;;;;;;;19.63;18.33;;;8.00;99.90;;;;;;5077444;28;20562;-73
2021/05/06 06:58:08;;;;;;;18.70;17.40;;;8.20;99.90;;;;;;5084197;28;20498;-72
2021/05/06 07:00:35;;;;;;;17.83;16.70;;;8.10;99.90;;;;;;5081358;28;20462;-74
2021/05/06 07:03:01;;;;;;;20.03;18.73;;;8.20;99.90;;;;;;5083009;28;20459;-74
2021/05/06 07:05:28;;;;;;;19.40;18.00;;;8.40;99.90;;;;;;5086284;28;20830;-73
2021/05/06 07:08:12;;;;;;;20.13;17.87;;;8.50;99.90;;;;;;5085335;28;20468;-74
2021/05/06 07:10:39;;;;;;;19.93;18.63;;;8.60;99.90;;;;;;5089846;28;20978;-75
2021/05/06 07:13:05;;;;;;;20.37;18.87;;;8.70;99.90;;;;;;5081748;28;20993;-74
2021/05/06 07:15:32;;;;;;;20.37;18.77;;;9.00;99.90;;;;;;5085299;28;20493;-74
2021/05/06 07:17:59;;;;;;;18.23;16.93;;;9.10;99.90;;;;;;5081634;28;20483;-75
2021/05/06 07:20:25;;;;;;;20.37;19.00;;;8.50;99.90;;;;;;5085993;28;20527;-75
2021/05/06 07:22:53;;;;;;;19.33;18.03;;;8.60;99.90;;;;;;5083324;28;20466;-74
2021/05/06 07:25:20;;;;;;;20.83;19.33;;;8.70;99.90;;;;;;5086577;28;20454;-75
2021/05/06 07:27:46;;;;;;;20.40;19.10;;;8.70;99.90;;;;;;5082371;28;20996;-73
2021/05/06 07:30:14;;;;;;;21.37;19.63;;;8.90;99.90;;;;;;5081336;28;20469;-75
2021/05/06 07:32:41;;;;;;;22.53;20.60;;;9.00;99.90;;;;;;5081485;28;20820;-74
2021/05/06 07:35:08;;;;;;;21.90;20.37;;;8.70;99.90;;;;;;5084537;28;20890;-73
2021/05/06 07:37:34;;;;;;;20.80;19.50;;;8.80;99.90;;;;;;5082260;28;20520;-74
2021/05/06 07:40:01;;;;;;;20.23;18.73;;;8.90;99.90;;;;;;5075002;28;20486;-73
2021/05/06 07:42:28;;;;;;;20.37;18.87;;;9.00;99.90;;;;;;5075605;28;20482;-74
2021/05/06 07:44:55;;;;;;;19.50;18.23;;;9.00;99.90;;;;;;5074981;28;20474;-75
2021/05/06 07:47:21;;;;;;;18.80;17.60;;;8.80;99.90;;;;;;5070715;28;20479;-76
2021/05/06 07:49:49;;;;;;;19.20;17.80;;;9.00;99.90;;;;;;5079619;28;20550;-74
2021/05/06 07:52:18;;;;;;;18.80;17.50;;;8.90;99.90;;;;;;5074505;28;20592;-75
2021/05/06 07:54:44;;;;;;;18.17;17.00;;;9.00;99.90;;;;;;5078620;28;20529;-73
2021/05/06 07:57:11;;;;;;;19.60;18.20;;;9.30;99.90;;;;;;5076058;28;20996;-72
2021/05/06 07:59:38;;;;;;;19.67;18.00;;;9.60;99.90;;;;;;5071948;28;20466;-72
2021/05/06 08:02:05;;;;;;;18.23;17.03;;;9.60;99.90;;;;;;5077252;28;20684;-72
2021/05/06 08:04:32;;;;;;;17.57;16.57;;;9.70;99.90;;;;;;5076146;28;20516;-72
2021/05/06 08:06:59;;;;;;;18.33;17.33;;;9.50;99.90;;;;;;5080619;28;20487;-74
2021/05/06 08:09:25;;;;;;;19.80;17.80;;;9.60;99.90;;;;;;5075158;28;20466;-74
2021/05/06 08:11:56;;;;;;;18.97;17.50;;;9.60;99.90;;;;;;5075015;28;21172;-75
2021/05/06 08:14:23;;;;;;;17.47;16.40;;;9.70;99.90;;;;;;5078558;28;20493;-74
2021/05/06 08:16:50;;;;;;;18.43;17.10;;;9.80;99.90;;;;;;5076688;28;20561;-74
2021/05/06 08:19:17;;;;;;;19.33;18.07;;;9.50;99.90;;;;;;5076827;28;20457;-75
2021/05/06 08:21:44;;;;;;;18.27;17.17;;;9.80;99.90;;;;;;5082281;28;20547;-75
2021/05/06 08:24:10;;;;;;;17.40;16.40;;;10.20;99.90;;;;;;5075496;28;20468;-75
2021/05/06 08:26:37;;;;;;;17.80;16.70;;;10.20;99.90;;;;;;5074865;28;20466;-74
2021/05/06 08:29:04;;;;;;;17.00;16.00;;;10.40;99.90;;;;;;5078119;28;20980;-74
2021/05/06 08:31:31;;;;;;;17.40;16.40;;;11.10;99.90;;;;;;5080251;28;20462;-74
2021/05/06 08:33:58;;;;;;;17.93;16.73;;;12.00;99.90;;;;;;5075151;28;20462;-75
2021/05/06 08:36:25;;;;;;;17.23;16.33;;;12.60;99.90;;;;;;5080313;28;20512;-74
2021/05/06 08:38:51;;;;;;;18.43;17.23;;;12.50;99.90;;;;;;5079074;28;20836;-74
2021/05/06 08:41:19;;;;;;;18.03;17.03;;;13.30;99.90;;;;;;5077081;28;20968;-74
2021/05/06 08:43:50;;;;;;;20.20;18.90;;;13.60;99.90;;;;;;5074726;28;20532;-75
2021/05/06 08:46:18;;;;;;;18.97;17.50;;;13.40;99.90;;;;;;5071930;28;20463;-75
2021/05/06 08:48:47;;;;;;;18.13;16.83;;;13.40;99.90;;;;;;5082106;28;20458;-74
2021/05/06 08:51:15;;;;;;;19.60;18.00;;;14.00;99.90;;;;;;5078351;28;20458;-74
2021/05/06 08:53:44;;;;;;;18.90;17.50;;;13.80;99.90;;;;;;5078058;28;20474;-74
2021/05/06 08:56:10;;;;;;;18.80;17.70;;;13.50;99.90;;;;;;5078697;28;20486;-75
2021/05/06 08:58:36;;;;;;;18.67;17.57;;;13.60;99.90;;;;;;5076047;28;20564;-73
2021/05/06 09:01:03;;;;;;;18.27;17.10;;;14.00;99.90;;;;;;5077388;28;20483;-73
2021/05/06 09:03:30;;;;;;;18.97;17.87;;;13.90;99.90;;;;;;5076311;28;20969;-75
2021/05/06 09:06:12;;;;;;;19.50;18.40;;;14.70;99.90;;;;;;5075947;28;20570;-73
2021/05/06 09:08:41;;;;;;;18.03;16.93;;;14.30;99.90;;;;;;5072926;28;21262;-75
2021/05/06 09:11:07;;;;;;;18.30;17.10;;;14.00;99.90;;;;;;5075979;28;20458;-74
2021/05/06 09:13:34;;;;;;;18.60;17.30;;;14.10;99.90;;;;;;5074327;28;20466;-75
2021/05/06 09:16:03;;;;;;;26.53;17.30;;;14.50;99.90;;;;;;5081160;28;21129;-75
2021/05/06 09:18:43;;;;;;;18.50;17.20;;;15.00;99.90;;;;;;5082509;28;20474;-74
2021/05/06 09:21:25;;;;;;;18.30;17.20;;;15.10;99.90;;;;;;5070345;28;20464;-74
2021/05/06 09:24:03;;;;;;;18.50;17.40;;;14.40;99.90;;;;;;5073448;28;20973;-75
2021/05/06 09:26:29;;;;;;;18.90;17.53;;;13.50;99.90;;;;;;5073958;28;20458;-74
2021/05/06 09:28:56;;;;;;;18.63;17.63;;;13.20;99.90;;;;;;5078674;28;20471;-74
2021/05/06 09:31:24;;;;;;;17.87;16.87;;;13.50;99.90;;;;;;5075089;28;20467;-75
2021/05/06 09:33:51;;;;;;;18.20;17.20;;;13.60;99.90;;;;;;5076367;28;20552;-74
2021/05/06 09:36:19;;;;;;;18.73;17.57;;;13.10;99.90;;;;;;5079975;28;20493;-75
2021/05/06 09:38:48;;;;;;;18.27;17.17;;;13.30;99.90;;;;;;5078577;28;20457;-76
2021/05/06 09:41:20;;;;;;;17.77;16.67;;;14.60;99.90;;;;;;5078415;28;20505;-75
2021/05/06 09:43:48;;;;;;;18.10;16.90;;;15.40;99.90;;;;;;5074824;28;20474;-76
2021/05/06 09:46:29;;;;;;;17.70;16.70;;;15.50;99.90;;;;;;5077925;28;20501;-73
2021/05/06 09:49:00;;;;;;;18.23;17.13;;;14.50;99.90;;;;;;5078235;28;20563;-76
2021/05/06 09:51:31;;;;;;;17.27;16.30;;;14.40;99.90;;;;;;5069464;28;20539;-76
2021/05/06 09:53:58;;;;;;;19.17;17.87;;;15.30;99.90;;;;;;5075982;28;20478;-77
2021/05/06 09:56:26;;;;;;;19.07;17.87;;;15.80;98.40;;;;;;5078050;28;20486;-76
2021/05/06 09:58:54;;;;;;;17.10;16.20;;;15.90;99.10;;;;;;5072053;28;20511;-75
2021/05/06 10:01:22;;;;;;;16.80;15.90;;;17.20;97.20;;;;;;5078991;28;20468;-75
2021/05/06 10:03:49;;;;;;;17.07;16.17;;;17.50;96.30;;;;;;5075185;28;20566;-75
2021/05/06 10:06:18;;;;;;;17.20;15.83;;;17.60;94.90;;;;;;5083500;28;20460;-74
2021/05/06 10:08:45;;;;;;;17.10;15.93;;;17.90;94.10;;;;;;5077770;28;20480;-76
2021/05/06 10:11:13;;;;;;;17.80;16.80;;;17.80;94.30;;;;;;5075444;28;20462;-75
2021/05/06 10:13:41;;;;;;;17.77;16.77;;;17.60;92.50;;;;;;5076103;28;20620;-77
2021/05/06 10:16:09;;;;;;;18.03;17.03;;;16.70;92.70;;;;;;5071368;28;20501;-76
2021/05/06 10:18:38;;;;;;;18.00;16.90;;;16.30;93.10;;;;;;5072215;28;20466;-73
2021/05/06 10:21:06;;;;;;;16.90;15.90;;;17.00;92.40;;;;;;5077800;28;20458;-75
2021/05/06 10:23:33;;;;;;;17.07;16.07;;;16.60;93.70;;;;;;5072406;28;20502;-75
2021/05/06 10:26:01;;;;;;;16.43;15.23;;;17.70;92.10;;;;;;5069568;28;20466;-77
2021/05/06 10:28:30;;;;;;;17.00;16.07;;;18.00;88.10;;;;;;5077476;28;20461;-73
2021/05/06 10:31:00;;;;;;;17.33;16.40;;;18.70;85.70;;;;;;5082194;28;21152;-75
2021/05/06 10:33:29;;;;;;;17.97;16.87;;;17.90;86.20;;;;;;5075727;28;20491;-75
2021/05/06 10:35:58;;;;;;;18.23;17.03;;;16.50;90.30;;;;;;5074354;28;21005;-74
2021/05/06 10:38:30;;;;;;;17.87;16.67;;;16.40;91.50;;;;;;5079516;28;20462;-74
2021/05/06 10:40:56;;;;;;;17.93;16.73;;;15.90;92.30;;;;;;5081286;28;20459;-74
2021/05/06 10:43:29;;;;;;;17.73;16.63;;;15.50;91.40;;;;;;5077773;28;20555;-74
2021/05/06 10:46:01;;;;;;;17.63;16.63;;;15.10;92.30;;;;;;5079566;28;21170;-74
2021/05/06 10:48:57;;;;;;;18.60;17.30;;;15.10;92.00;;;;;;5074555;28;20474;-75
2021/05/06 10:51:40;;;;;;;18.33;17.20;;;14.70;92.30;;;;;;5078387;28;20458;-74
2021/05/06 10:54:27;;;;;;;17.80;16.80;;;14.80;92.80;;;;;;5075549;28;20517;-74
2021/05/06 10:56:54;;;;;;;17.77;16.63;;;15.70;90.60;;;;;;5071006;28;20494;-73
2021/05/06 10:59:24;;;;;;;17.20;16.10;;;15.80;90.10;;;;;;5080804;28;20492;-74
2021/05/06 11:01:51;;;;;;;19.43;18.13;;;16.00;90.70;;;;;;5080514;28;20559;-74
2021/05/06 11:04:33;;;;;;;18.50;17.20;;;15.60;91.40;;;;;;5074905;28;20969;-73
2021/05/06 11:07:13;;;;;;;17.20;16.33;;;15.50;90.30;;;;;;5081293;28;20810;-73
2021/05/06 11:09:57;;;;;;;19.20;18.20;;;15.20;88.80;;;;;;5079101;28;20551;-74
2021/05/06 11:12:34;;;;;;;18.10;17.10;;;16.00;88.50;;;;;;5069951;28;20482;-73
2021/05/06 11:15:33;;;;;;;18.00;16.93;;;16.80;88.50;;;;;;5079879;28;20572;-73
2021/05/06 11:18:02;;;;;;;18.53;17.07;;;16.40;85.80;;;;;;5077886;28;20461;-73
2021/05/06 11:20:50;;;;;;;17.43;16.53;;;16.30;83.90;;;;;;5073509;28;20476;-72
2021/05/06 11:23:26;;;;;;;17.00;15.87;;;16.10;84.30;;;;;;5079409;28;20462;-73
2021/05/06 11:26:07;;;;;;;16.87;16.03;;;15.50;82.80;;;;;;5080043;28;20541;-72
2021/05/06 11:28:46;;;;;;;17.50;16.50;;;15.50;81.40;;;;;;5076089;28;20823;-73
2021/05/06 11:31:15;;;;;;;16.43;15.63;;;16.70;81.80;;;;;;5080308;28;20463;-72
2021/05/06 11:33:42;;;;;;;17.97;16.83;;;16.80;80.70;;;;;;5081943;28;20466;-73
2021/05/06 11:36:14;;;;;;;16.90;15.90;;;16.70;78.10;;;;;;5078492;28;20984;-73
2021/05/06 11:38:50;;;;;;;16.67;15.80;;;15.40;80.00;;;;;;5078357;28;20987;-73
2021/05/06 11:41:19;;;;;;;17.27;15.97;;;16.00;81.00;;;;;;5075881;28;20746;-73
2021/05/06 11:43:47;;;;;;;17.20;16.20;;;15.90;79.40;;;;;;5079598;28;20536;-73
2021/05/06 11:46:17;;;;;;;16.97;16.07;;;16.50;80.20;;;;;;5083002;28;20458;-73
2021/05/06 11:48:46;;;;;;;17.33;16.13;;;16.90;82.90;;;;;;5081018;28;20472;-73
2021/05/06 11:51:27;;;;;;;16.80;15.90;;;17.40;77.10;;;;;;5075920;28;20461;-73
2021/05/06 11:54:18;;;;;;;16.17;15.30;;;17.20;78.30;;;;;;5074578;28;20543;-73
2021/05/06 11:56:53;;;;;;;16.73;15.80;;;17.20;74.30;;;;;;5063950;28;21012;-73
2021/05/06 11:59:21;;;;;;;16.13;15.23;;;17.90;76.20;;;;;;5075705;28;20998;-73
2021/05/06 12:01:48;;;;;;;17.03;15.97;;;18.40;76.80;;;;;;5078595;28;20460;-74
2021/05/06 12:04:26;;;;;;;15.50;14.70;;;17.70;70.90;;;;;;5078855;28;20956;-73
2021/05/06 12:06:54;;;;;;;16.30;15.40;;;17.90;72.00;;;;;;5081269;28;20804;-73
2021/05/06 12:09:25;;;;;;;18.03;16.77;;;18.20;68.60;;;;;;5076604;28;20553;-73
2021/05/06 12:11:52;;;;;;;16.07;15.27;;;18.70;68.10;;;;;;5071900;28;20462;-73
2021/05/06 12:14:29;;;;;;;16.10;15.30;;;18.10;64.90;;;;;;5078484;28;20462;-73
2021/05/06 12:16:57;;;;;;;16.03;15.20;;;18.20;69.20;;;;;;5075006;28;20547;-73
2021/05/06 12:19:24;;;;;;;16.80;15.90;;;16.70;68.00;;;;;;5080199;28;20467;-74
2021/05/06 12:21:55;;;;;;;16.90;16.10;;;15.90;73.40;;;;;;5074076;28;20495;-73
2021/05/06 12:24:31;;;;;;;16.87;15.77;;;16.30;73.90;;;;;;5073740;28;20985;-74
2021/05/06 12:26:58;;;;;;;17.30;16.10;;;16.10;71.30;;;;;;5078670;28;20454;-73
2021/05/06 12:29:27;;;;;;;17.37;16.47;;;16.60;70.80;;;;;;5076519;28;20470;-73
2021/05/06 12:31:54;;;;;;;17.33;16.33;;;17.10;72.60;;;;;;5077390;28;20951;-72
2021/05/06 12:34:22;;;;;;;17.97;16.87;;;17.00;70.70;;;;;;5078842;28;20454;-75
2021/05/06 12:36:51;;;;;;;16.40;15.60;;;17.70;69.60;;;;;;5076508;28;20580;-73
2021/05/06 12:39:19;;;;;;;17.80;16.90;;;17.50;68.30;;;;;;5069476;28;20817;-73
2021/05/06 12:41:54;;;;;;;17.57;16.13;;;17.30;70.20;;;;;;5079510;28;20878;-73
2021/05/06 12:44:42;;;;;;;17.10;15.87;;;17.30;68.60;;;;;;5078040;28;20969;-73
2021/05/06 12:47:13;;;;;;;15.70;14.80;;;17.80;66.90;;;;;;5077430;28;20467;-75
2021/05/06 12:49:39;;;;;;;16.20;15.33;;;17.50;65.00;;;;;;5079366;28;20472;-73
2021/05/06 12:52:06;;;;;;;16.57;15.67;;;17.10;67.80;;;;;;5073228;28;20467;-75
2021/05/06 12:54:36;;;;;;;15.47;14.77;;;17.60;66.80;;;;;;5073065;28;20999;-75
2021/05/06 12:57:14;;;;;;;15.80;14.90;;;18.30;66.30;;;;;;5071275;28;20579;-73
2021/05/06 12:59:44;;;;;;;15.33;14.53;;;17.60;65.80;;;;;;5070876;28;20898;-75
2021/05/06 13:02:11;;;;;;;16.43;15.43;;;17.20;64.80;;;;;;5076794;28;20570;-75
2021/05/06 13:04:48;;;;;;;15.57;14.60;;;16.80;65.30;;;;;;5079286;28;20523;-73
2021/05/06 13:07:17;;;;;;;16.10;15.27;;;17.20;66.40;;;;;;5077202;28;20465;-74
2021/05/06 13:09:45;;;;;;;16.57;15.30;;;16.50;66.50;;;;;;5074928;28;20492;-73
2021/05/06 13:12:16;;;;;;;15.30;14.50;;;16.90;66.00;;;;;;5077627;28;20465;-76
2021/05/06 13:14:48;;;;;;;14.70;14.00;;;17.40;65.80;;;;;;5071529;28;20531;-75
2021/05/06 13:17:26;;;;;;;14.47;13.77;;;17.50;65.00;;;;;;5074356;28;20895;-74
2021/05/06 13:19:53;;;;;;;16.00;15.10;;;17.30;66.80;;;;;;5071593;28;20462;-73
2021/05/06 13:22:21;;;;;;;14.87;13.97;;;16.80;66.40;;;;;;5076625;28;20458;-74
2021/05/06 13:24:50;;;;;;;15.03;14.23;;;16.80;65.40;;;;;;5077970;28;20562;-74
2021/05/06 13:27:17;;;;;;;15.10;14.30;;;16.90;65.20;;;;;;5072189;28;20454;-74
2021/05/06 13:29:57;;;;;;;16.30;15.20;;;16.90;65.60;;;;;;5076225;28;20465;-74
2021/05/06 13:32:32;;;;;;;17.53;16.43;;;17.10;66.20;;;;;;5076293;28;20458;-75
2021/05/06 13:34:58;;;;;;;15.57;14.57;;;16.40;64.10;;;;;;5069721;28;20457;-73
2021/05/06 13:37:35;;;;;;;15.20;14.40;;;16.20;64.20;;;;;;5073682;28;20471;-73
2021/05/06 13:40:01;;;;;;;15.57;14.50;;;16.00;65.40;;;;;;5076268;28;20477;-74
2021/05/06 13:42:28;;;;;;;15.50;14.70;;;16.20;66.80;;;;;;5080127;28;20485;-75
2021/05/06 13:44:57;;;;;;;15.77;14.97;;;16.00;68.50;;;;;;5071914;28;20459;-75
2021/05/06 13:47:24;;;;;;;16.30;15.40;;;15.80;67.20;;;;;;5075921;28;20469;-73
2021/05/06 13:49:50;;;;;;;16.33;15.40;;;15.50;65.80;;;;;;5072638;28;21050;-76
2021/05/06 13:52:17;;;;;;;15.70;14.80;;;15.80;64.90;;;;;;5076641;28;20507;-73
2021/05/06 13:54:45;;;;;;;16.03;15.13;;;15.90;64.80;;;;;;5073423;28;20482;-76
2021/05/06 13:57:11;;;;;;;15.97;15.13;;;15.80;65.50;;;;;;5075531;28;20498;-73
2021/05/06 13:59:38;;;;;;;14.97;14.17;;;15.90;66.70;;;;;;5071086;28;20553;-75
2021/05/06 14:02:04;;;;;;;15.17;14.17;;;15.50;71.80;;;;;;5075204;28;20992;-74
2021/05/06 14:04:30;;;;;;;16.40;15.40;;;14.90;69.00;;;;;;5074356;28;20462;-73
2021/05/06 14:06:56;;;;;;;16.03;15.23;;;14.50;74.40;;;;;;5077292;28;21185;-75
2021/05/06 14:09:23;;;;;;;15.73;14.83;;;14.10;77.60;;;;;;5079849;28;20458;-73
2021/05/06 14:11:51;;;;;;;15.80;14.90;;;13.70;79.10;;;;;;5077667;28;20465;-73
2021/05/06 14:14:18;;;;;;;16.43;15.53;;;13.40;75.50;;;;;;5078443;28;20493;-76
2021/05/06 14:16:44;;;;;;;17.13;16.20;;;13.00;79.70;;;;;;5077787;28;20490;-73
2021/05/06 14:19:13;;;;;;;16.60;15.40;;;13.20;79.20;;;;;;5074856;28;20480;-73
2021/05/06 14:21:40;;;;;;;16.13;15.30;;;12.70;81.80;;;;;;5075261;28;20459;-74
2021/05/06 14:24:07;;;;;;;15.67;14.90;;;12.70;83.70;;;;;;5083383;28;20979;-76
2021/05/06 14:26:33;;;;;;;16.50;15.70;;;12.60;82.60;;;;;;5085447;28;20547;-73
2021/05/06 14:29:01;;;;;;;16.80;15.80;;;12.70;84.60;;;;;;5081578;28;20473;-73
2021/05/06 14:31:27;;;;;;;16.47;15.57;;;13.10;83.80;;;;;;5075687;28;20866;-74
2021/05/06 14:33:53;;;;;;;15.53;14.73;;;13.10;82.90;;;;;;5076551;28;20465;-73
2021/05/06 14:36:19;;;;;;;17.57;16.23;;;13.10;81.70;;;;;;5080838;28;20493;-73
2021/05/06 14:38:46;;;;;;;16.20;15.30;;;12.90;84.70;;;;;;5078864;28;20458;-75
2021/05/06 14:41:13;;;;;;;16.83;15.80;;;13.30;92.80;;;;;;5072875;28;20466;-73
2021/05/06 14:43:39;;;;;;;17.57;16.67;;;13.30;92.20;;;;;;5074552;28;20550;-73
2021/05/06 14:46:07;;;;;;;17.30;16.20;;;12.30;91.90;;;;;;5077804;28;20884;-75
2021/05/06 14:48:33;;;;;;;17.30;16.10;;;12.00;91.80;;;;;;5079820;28;20466;-76
2021/05/06 14:51:00;;;;;;;15.73;14.93;;;12.10;91.00;;;;;;5077966;28;20466;-74
2021/05/06 14:53:29;;;;;;;16.70;15.80;;;12.00;92.80;;;;;;5078470;28;20473;-76
2021/05/06 14:55:55;;;;;;;16.10;15.10;;;12.00;93.20;;;;;;5080599;28;20527;-73
2021/05/06 14:58:23;;;;;;;17.37;16.37;;;11.90;94.20;;;;;;5081891;28;21373;-76
2021/05/06 15:00:49;;;;;;;17.50;16.37;;;11.70;96.00;;;;;;5081825;28;20472;-74
2021/05/06 15:03:16;;;;;;;17.53;16.10;;;11.90;93.80;;;;;;5081515;28;20461;-74
2021/05/06 15:05:43;;;;;;;16.67;15.43;;;11.90;94.10;;;;;;5084289;28;20465;-75
2021/05/06 15:08:09;;;;;;;17.47;16.50;;;11.90;95.20;;;;;;5082491;28;20454;-73
2021/05/06 15:10:36;;;;;;;18.90;17.67;;;11.90;98.30;;;;;;5075927;28;20458;-74
2021/05/06 15:13:11;;;;;;;22.10;20.70;;;11.60;96.50;;;;;;5078136;28;20902;-75
2021/05/06 15:15:38;;;;;;;21.70;20.40;;;11.40;99.90;;;;;;5082714;28;20481;-75
2021/05/06 15:18:04;;;;;;;22.90;21.27;;;11.30;99.90;;;;;;5082754;28;20879;-74
2021/05/06 15:20:33;;;;;;;24.10;22.60;;;11.20;99.90;;;;;;5087019;28;20458;-76
2021/05/06 15:23:00;;;;;;;23.90;22.37;;;11.30;99.90;;;;;;5072163;28;21325;-74
2021/05/06 15:25:26;;;;;;;23.80;22.10;;;11.30;99.90;;;;;;5073955;28;20833;-74
2021/05/06 15:27:53;;;;;;;22.80;21.50;;;11.20;99.90;;;;;;5070541;28;20972;-74
2021/05/06 15:30:21;;;;;;;22.77;21.30;;;11.40;99.90;;;;;;5079220;28;20467;-73
2021/05/06 15:32:48;;;;;;;22.33;20.83;;;11.60;99.90;;;;;;5081414;28;21054;-74
2021/05/06 15:35:16;;;;;;;21.40;20.10;;;11.70;99.90;;;;;;5079312;28;20564;-74
2021/05/06 15:37:43;;;;;;;19.67;18.47;;;11.50;99.90;;;;;;5070797;28;20462;-75
2021/05/06 15:40:12;;;;;;;18.60;17.30;;;11.50;99.90;;;;;;5076239;28;20466;-74
2021/05/06 15:42:39;;;;;;;18.40;17.30;;;11.00;99.90;;;;;;5071981;28;20478;-75
2021/05/06 15:45:09;;;;;;;17.47;16.40;;;11.00;99.90;;;;;;5074905;28;21000;-75